createdAt,value
2022-08-09T00:00:21.267Z,2.83
2022-08-09T00:02:50.227Z,2.95
2022-08-09T00:06:17.860Z,2.95
2022-08-09T00:08:12.969Z,3.30
2022-08-09T00:10:58.684Z,2.83
2022-08-09T00:13:25.528Z,2.90
2022-08-09T00:15:59.092Z,3.45
2022-08-09T00:18:30.424Z,2.80
2022-08-09T00:20:58.531Z,3.03
2022-08-09T00:23:55.133Z,2.97
2022-08-09T00:26:12.457Z,2.80
2022-08-09T00:28:41.420Z,3.03
2022-08-09T00:31:57.498Z,3.50
2022-08-09T00:34:06.976Z,3.50
2022-08-09T00:36:34.439Z,3.17
2022-08-09T00:39:01.769Z,3.05
2022-08-09T00:44:19.181Z,2.72
2022-08-09T00:44:26.205Z,3.00
2022-08-09T00:46:57.475Z,3.22
2022-08-09T00:49:36.822Z,3.30
2022-08-09T00:52:06.231Z,3.28
2022-08-09T00:54:45.576Z,3.30
2022-08-09T00:57:13.572Z,3.70
2022-08-09T00:59:46.854Z,3.80
2022-08-09T01:02:22.196Z,3.35
2022-08-09T01:05:00.723Z,3.47
2022-08-09T01:08:01.960Z,3.47
2022-08-09T01:10:41.467Z,3.70
2022-08-09T01:13:53.388Z,3.60
2022-08-09T01:16:29.910Z,3.53
2022-08-09T01:19:04.412Z,3.72
2022-08-09T01:22:03.480Z,3.60
2022-08-09T01:25:16.257Z,3.88
2022-08-09T01:27:52.507Z,3.80
2022-08-09T01:30:33.467Z,3.80
2022-08-09T01:33:06.132Z,3.97
2022-08-09T01:35:51.826Z,4.20
2022-08-09T01:38:25.711Z,4.10
2022-08-09T01:41:05.647Z,3.67
2022-08-09T01:43:47.860Z,3.90
2022-08-09T01:46:27.848Z,4.07
2022-08-09T01:49:09.686Z,4.03
2022-08-09T01:51:44.238Z,4.00
2022-08-09T01:54:13.178Z,4.28
2022-08-09T01:56:42.811Z,4.75
2022-08-09T01:59:19.049Z,4.80
2022-08-09T02:01:59.169Z,4.47
2022-08-09T02:04:28.476Z,4.80
2022-08-09T02:07:17.973Z,5.60
2022-08-09T02:10:13.545Z,4.65
2022-08-09T02:12:44.285Z,5.07
2022-08-09T02:15:16.687Z,5.28
2022-08-09T02:18:00.837Z,5.30
2022-08-09T02:20:45.707Z,5.20
2022-08-09T02:23:16.927Z,5.38
2022-08-09T02:25:52.571Z,5.45
2022-08-09T02:28:25.245Z,5.15
2022-08-09T02:30:59.372Z,5.22
2022-08-09T02:33:58.175Z,5.43
2022-08-09T02:36:26.376Z,5.40
2022-08-09T02:38:55.593Z,5.28
2022-08-09T02:41:30.703Z,5.95
2022-08-09T02:44:10.433Z,5.50
2022-08-09T02:46:43.514Z,5.88
2022-08-09T02:49:15.670Z,5.55
2022-08-09T02:51:46.275Z,5.60
2022-08-09T02:54:22.230Z,6.35
2022-08-09T02:56:53.929Z,6.35
2022-08-09T02:59:36.619Z,5.55
2022-08-09T03:02:09.786Z,5.63
2022-08-09T03:04:40.662Z,5.53
2022-08-09T03:07:12.306Z,5.88
2022-08-09T03:09:43.852Z,5.47
2022-08-09T03:12:23.365Z,5.00
2022-08-09T03:14:52.387Z,5.75
2022-08-09T03:17:20.511Z,6.53
2022-08-09T03:20:00.503Z,6.15
2022-08-09T03:22:32.631Z,5.70
2022-08-09T03:25:06.130Z,5.53
2022-08-09T03:27:52.334Z,5.90
2022-08-09T03:30:29.556Z,6.30
2022-08-09T03:33:17.813Z,6.10
2022-08-09T03:36:13.381Z,5.78
2022-08-09T03:38:42.168Z,5.30
2022-08-09T03:41:16.354Z,5.68
2022-08-09T03:44:02.943Z,6.30
2022-08-09T03:46:34.177Z,5.28
2022-08-09T03:49:04.038Z,6.47
2022-08-09T03:51:44.442Z,5.82
2022-08-09T03:54:29.251Z,6.40
2022-08-09T03:56:59.226Z,6.40
2022-08-09T03:59:52.812Z,6.60
2022-08-09T04:02:14.329Z,6.18
2022-08-09T04:04:46.295Z,6.47
2022-08-09T04:07:14.622Z,5.95
2022-08-09T04:09:50.216Z,6.00
2022-08-09T04:12:36.352Z,6.20
2022-08-09T04:15:11.657Z,6.50
2022-08-09T04:17:50.661Z,6.18
2022-08-09T04:20:18.935Z,6.40
2022-08-09T04:22:47.411Z,5.97
2022-08-09T04:25:17.185Z,6.05
2022-08-09T04:27:48.848Z,6.20
2022-08-09T04:30:20.805Z,6.03
2022-08-09T04:32:50.696Z,6.03
2022-08-09T04:35:18.729Z,5.65
2022-08-09T04:37:49.821Z,6.20
2022-08-09T04:40:28.884Z,6.00
2022-08-09T04:43:03.700Z,5.97
2022-08-09T04:45:31.120Z,6.28
2022-08-09T04:48:08.015Z,6.18
2022-08-09T04:50:38.180Z,6.30
2022-08-09T04:53:13.251Z,7.20
2022-08-09T04:55:58.281Z,6.88
2022-08-09T04:58:32.856Z,6.82
2022-08-09T05:01:00.544Z,6.32
2022-08-09T05:03:42.661Z,6.88
2022-08-09T05:06:22.041Z,6.57
2022-08-09T05:09:00.688Z,6.47
2022-08-09T05:11:32.044Z,7.30
2022-08-09T05:14:06.197Z,6.82
2022-08-09T05:16:43.541Z,6.95
2022-08-09T05:19:25.642Z,7.25
2022-08-09T05:21:55.265Z,6.85
2022-08-09T05:24:24.223Z,7.35
2022-08-09T05:26:52.199Z,7.10
2022-08-09T05:29:24.074Z,7.10
2022-08-09T05:31:56.677Z,7.38
2022-08-09T05:34:31.234Z,7.53
2022-08-09T05:37:01.835Z,7.70
2022-08-09T05:39:36.140Z,7.25
2022-08-09T05:42:09.824Z,7.35
2022-08-09T05:44:44.924Z,7.45
2022-08-09T05:47:14.485Z,7.82
2022-08-09T05:50:25.156Z,7.88
2022-08-09T05:52:31.650Z,7.28
2022-08-09T05:55:03.190Z,7.43
2022-08-09T05:57:50.684Z,7.63
2022-08-09T06:00:22.318Z,7.63
2022-08-09T06:02:49.353Z,8.23
2022-08-09T06:05:31.109Z,8.95
2022-08-09T06:08:08.943Z,8.65
2022-08-09T06:10:39.072Z,7.95
2022-08-09T06:13:20.230Z,8.07
2022-08-09T06:15:47.736Z,8.63
2022-08-09T06:18:19.481Z,8.30
2022-08-09T06:23:58.171Z,7.63
2022-08-09T06:26:11.987Z,7.88
2022-08-09T06:28:38.980Z,8.73
2022-08-09T06:31:10.571Z,8.15
2022-08-09T06:33:41.012Z,8.02
2022-08-09T06:36:11.971Z,7.80
2022-08-09T06:38:47.906Z,7.00
2022-08-09T06:41:19.003Z,8.10
2022-08-09T06:43:47.449Z,8.02
2022-08-09T06:46:39.736Z,7.55
2022-08-09T06:49:02.488Z,7.65
2022-08-09T06:51:29.228Z,8.50
2022-08-09T06:54:00.823Z,8.27
2022-08-09T06:56:30.860Z,7.55
2022-08-09T07:00:52.796Z,7.18
2022-08-09T07:01:57.932Z,6.95
2022-08-09T07:04:30.410Z,7.32
2022-08-09T07:07:00.005Z,7.40
2022-08-09T07:09:57.310Z,7.72
2022-08-09T07:12:18.031Z,6.68
2022-08-09T07:14:50.906Z,7.32
2022-08-09T07:17:19.674Z,6.53
2022-08-09T07:19:48.134Z,6.80
2022-08-09T07:22:18.651Z,6.63
2022-08-09T07:25:01.667Z,6.65
2022-08-09T07:27:34.462Z,6.03
2022-08-09T07:30:13.485Z,5.55
2022-08-09T07:32:43.601Z,5.55
2022-08-09T07:35:14.700Z,5.82
2022-08-09T07:37:45.846Z,4.88
2022-08-09T07:40:18.763Z,5.30
2022-08-09T07:42:54.423Z,4.95
2022-08-09T07:45:39.678Z,4.72
2022-08-09T07:48:22.615Z,4.70
2022-08-09T07:51:10.013Z,3.92
2022-08-09T07:54:05.798Z,3.80
2022-08-09T07:56:36.998Z,3.70
2022-08-09T07:59:14.161Z,3.70
2022-08-09T08:01:43.047Z,3.70
2022-08-09T08:04:19.871Z,3.03
2022-08-09T08:07:00.327Z,2.55
2022-08-09T08:09:51.660Z,3.08
2022-08-09T08:12:27.466Z,2.40
2022-08-09T08:14:57.064Z,2.10
2022-08-09T08:17:54.106Z,2.20
2022-08-09T08:20:13.189Z,2.40
2022-08-09T08:22:40.915Z,2.28
2022-08-09T08:25:13.273Z,1.70
2022-08-09T08:27:42.929Z,1.55
2022-08-09T08:30:11.750Z,1.70
2022-08-09T08:32:52.366Z,1.83
2022-08-09T08:35:22.464Z,1.60
2022-08-09T08:38:01.956Z,1.58
2022-08-09T08:40:32.839Z,1.40
2022-08-09T08:43:02.569Z,1.15
2022-08-09T08:46:33.645Z,1.30
2022-08-09T08:48:58.794Z,1.27
2022-08-09T08:51:26.106Z,1.30
2022-08-09T08:54:10.087Z,1.10
2022-08-09T08:56:39.716Z,0.82
2022-08-09T08:59:20.549Z,1.00
2022-08-09T09:01:53.019Z,0.88
2022-08-09T09:04:29.765Z,0.90
2022-08-09T09:07:01.262Z,1.10
2022-08-09T09:09:58.189Z,1.15
2022-08-09T09:12:19.852Z,0.90
2022-08-09T09:14:50.256Z,0.83
2022-08-09T09:17:19.064Z,1.05
2022-08-09T09:19:47.937Z,0.98
2022-08-09T09:22:26.631Z,0.95
2022-08-09T09:26:01.653Z,0.90
2022-08-09T09:28:06.837Z,1.08
2022-08-09T09:30:40.611Z,0.90
2022-08-09T09:33:17.098Z,0.80
2022-08-09T09:36:11.654Z,0.90
2022-08-09T09:38:48.611Z,0.70
2022-08-09T09:41:49.875Z,0.65
2022-08-09T09:44:25.423Z,0.60
2022-08-09T09:46:57.780Z,0.90
2022-08-09T09:49:56.202Z,0.70
2022-08-09T09:52:36.082Z,0.77
2022-08-09T09:55:24.469Z,0.50
2022-08-09T09:58:15.633Z,0.55
2022-08-09T10:00:54.857Z,0.50
2022-08-09T10:03:40.852Z,0.55
2022-08-09T10:06:09.454Z,0.60
2022-08-09T10:08:43.316Z,0.50
2022-08-09T10:12:01.143Z,0.50
2022-08-09T10:14:33.465Z,0.47
2022-08-09T10:17:38.814Z,0.50
2022-08-09T10:20:00.247Z,0.47
2022-08-09T10:22:39.078Z,0.60
2022-08-09T10:25:11.660Z,0.40
2022-08-09T10:27:57.198Z,0.70
2022-08-09T10:34:04.294Z,0.30
2022-08-09T10:36:09.662Z,0.47
2022-08-09T10:38:56.173Z,0.40
2022-08-09T10:41:24.658Z,0.60
2022-08-09T10:44:01.375Z,0.60
2022-08-09T10:47:18.341Z,0.55
2022-08-09T10:50:06.374Z,0.40
2022-08-09T10:53:11.349Z,0.40
2022-08-09T10:58:37.039Z,0.43
2022-08-09T11:03:06.450Z,0.50
2022-08-09T11:04:20.027Z,0.60
2022-08-09T11:07:03.639Z,0.80
2022-08-09T11:09:47.688Z,0.47
2022-08-09T11:12:21.692Z,0.47
2022-08-09T11:14:59.140Z,0.55
2022-08-09T11:17:26.229Z,0.60
2022-08-09T11:20:19.844Z,0.45
2022-08-09T11:22:55.434Z,0.60
2022-08-09T11:25:36.211Z,0.47
2022-08-09T11:28:33.912Z,0.40
2022-08-09T11:31:49.264Z,0.60
2022-08-09T11:34:33.550Z,0.68
2022-08-09T11:37:03.634Z,0.50
2022-08-09T11:40:08.195Z,0.57
2022-08-09T11:42:39.140Z,0.50
2022-08-09T11:45:17.543Z,0.52
2022-08-09T11:50:55.820Z,0.30
2022-08-09T11:53:59.855Z,0.40
2022-08-09T11:56:20.622Z,0.73
2022-08-09T11:59:09.574Z,0.60
2022-08-09T12:02:17.473Z,0.50
2022-08-09T12:04:32.402Z,0.50
2022-08-09T12:07:08.185Z,0.65
2022-08-09T12:09:36.046Z,0.80
2022-08-09T12:12:13.073Z,0.75
2022-08-09T12:15:03.883Z,0.50
2022-08-09T12:17:44.410Z,0.63
2022-08-09T12:20:22.034Z,0.70
2022-08-09T12:23:02.457Z,0.50
2022-08-09T12:25:37.474Z,0.43
2022-08-09T12:28:59.481Z,0.50
2022-08-09T12:30:57.993Z,0.50
2022-08-09T12:33:26.468Z,0.55
2022-08-09T12:36:27.357Z,0.70
2022-08-09T12:38:54.987Z,0.50
2022-08-09T12:41:43.488Z,0.80
2022-08-09T12:44:12.791Z,0.68
2022-08-09T12:46:48.882Z,0.60
2022-08-09T12:49:17.884Z,0.70
2022-08-09T12:52:02.294Z,0.50
2022-08-09T12:56:10.760Z,0.98
2022-08-09T12:57:46.330Z,0.60
2022-08-09T13:00:18.615Z,0.60
2022-08-09T13:02:53.439Z,0.70
2022-08-09T13:05:25.306Z,0.60
2022-08-09T13:08:14.577Z,0.63
2022-08-09T13:10:53.772Z,0.57
2022-08-09T13:13:29.127Z,0.80
2022-08-09T13:16:17.668Z,0.60
2022-08-09T13:18:53.971Z,0.60
2022-08-09T13:22:35.711Z,0.77
2022-08-09T13:24:44.903Z,0.60
2022-08-09T13:27:04.749Z,0.60
2022-08-09T13:30:02.988Z,0.70
2022-08-09T13:32:27.522Z,0.77
2022-08-09T13:35:02.550Z,0.70
2022-08-09T13:37:52.211Z,0.60
2022-08-09T13:41:51.431Z,0.60
2022-08-09T13:43:10.124Z,0.60
2022-08-09T13:46:42.761Z,0.63
2022-08-09T13:48:29.882Z,0.50
2022-08-09T13:50:56.804Z,0.82
2022-08-09T13:53:27.096Z,0.40
2022-08-09T13:56:12.017Z,0.80
2022-08-09T13:58:38.982Z,0.90
2022-08-09T14:01:06.135Z,0.65
2022-08-09T14:04:01.388Z,0.47
2022-08-09T14:06:29.565Z,0.77
2022-08-09T14:08:58.588Z,0.75
2022-08-09T14:11:25.344Z,0.60
2022-08-09T14:14:22.877Z,0.57
2022-08-09T14:16:40.250Z,0.60
2022-08-09T14:19:07.172Z,0.60
2022-08-09T14:21:33.856Z,0.60
2022-08-09T14:24:10.275Z,0.77
2022-08-09T14:26:41.635Z,0.50
2022-08-09T14:30:15.076Z,0.80
2022-08-09T14:32:10.936Z,1.00
2022-08-09T14:34:40.839Z,0.80
2022-08-09T14:37:08.745Z,0.52
2022-08-09T14:39:47.314Z,0.70
2022-08-09T14:42:30.357Z,0.70
2022-08-09T14:46:54.646Z,0.60
2022-08-09T14:47:59.732Z,0.60
2022-08-09T14:50:32.937Z,0.70
2022-08-09T14:53:11.260Z,0.70
2022-08-09T14:55:42.005Z,0.50
2022-08-09T14:58:09.576Z,0.60
2022-08-09T15:00:37.198Z,0.60
2022-08-09T15:03:08.798Z,0.50
2022-08-09T15:05:38.331Z,0.40
2022-08-09T15:08:06.117Z,0.80
2022-08-09T15:10:37.728Z,0.55
2022-08-09T15:13:05.972Z,0.73
2022-08-09T15:15:38.877Z,0.85
2022-08-09T15:18:07.666Z,0.63
2022-08-09T15:22:00.506Z,0.52
2022-08-09T15:24:05.520Z,0.70
2022-08-09T15:26:19.326Z,0.57
2022-08-09T15:29:04.214Z,0.70
2022-08-09T15:31:41.077Z,1.00
2022-08-09T15:34:31.931Z,0.60
2022-08-09T15:36:58.288Z,0.60
2022-08-09T15:39:25.731Z,0.50
2022-08-09T15:42:02.430Z,0.60
2022-08-09T15:44:32.630Z,0.80
2022-08-09T15:47:00.540Z,0.60
2022-08-09T15:49:27.611Z,0.40
2022-08-09T15:52:04.791Z,1.02
2022-08-09T15:54:44.651Z,0.70
2022-08-09T15:57:34.711Z,0.80
2022-08-09T16:00:14.699Z,0.70
2022-08-09T16:02:53.440Z,0.50
2022-08-09T16:05:23.254Z,0.85
2022-08-09T16:07:50.762Z,0.90
2022-08-09T16:10:56.101Z,0.70
2022-08-09T16:13:18.607Z,0.90
2022-08-09T16:16:11.375Z,0.70
2022-08-09T16:18:44.799Z,0.90
2022-08-09T16:21:17.700Z,1.00
2022-08-09T16:23:55.590Z,1.08
2022-08-09T16:26:34.524Z,0.60
2022-08-09T16:29:13.594Z,0.57
2022-08-09T16:32:20.274Z,0.50
2022-08-09T16:34:55.990Z,0.93
2022-08-09T16:37:20.497Z,0.55
2022-08-09T16:40:08.809Z,0.63
2022-08-09T16:42:39.148Z,0.60
2022-08-09T16:45:18.811Z,0.80
2022-08-09T16:48:39.215Z,0.70
2022-08-09T16:50:39.217Z,0.50
2022-08-09T16:53:06.167Z,0.55
2022-08-09T16:55:58.569Z,0.60
2022-08-09T16:58:22.964Z,0.77
2022-08-09T17:00:50.362Z,0.52
2022-08-09T17:03:21.550Z,0.50
2022-08-09T17:06:06.740Z,0.60
2022-08-09T17:08:44.165Z,0.52
2022-08-09T17:11:40.273Z,0.55
2022-08-09T17:14:08.980Z,0.35
2022-08-09T17:16:55.627Z,0.70
2022-08-09T17:19:22.502Z,0.55
2022-08-09T17:21:55.561Z,0.68
2022-08-09T17:26:58.252Z,0.40
2022-08-09T17:29:31.918Z,0.60
2022-08-09T17:32:04.972Z,0.45
2022-08-09T17:35:00.578Z,0.70
2022-08-09T17:37:19.711Z,0.52
2022-08-09T17:39:53.267Z,0.65
2022-08-09T17:42:41.411Z,0.52
2022-08-09T17:45:15.856Z,0.40
2022-08-09T17:47:54.766Z,0.52
2022-08-09T17:50:36.401Z,0.47
2022-08-09T17:53:19.663Z,0.60
2022-08-09T17:55:54.177Z,0.47
2022-08-09T17:58:26.945Z,0.50
2022-08-09T18:00:56.351Z,0.90
2022-08-09T18:03:24.538Z,0.80
2022-08-09T18:05:53.095Z,0.77
2022-08-09T18:08:21.922Z,1.02
2022-08-09T18:11:00.841Z,0.70
2022-08-09T18:13:43.053Z,0.60
2022-08-09T18:16:29.390Z,0.70
2022-08-09T18:19:03.442Z,0.70
2022-08-09T18:21:40.961Z,0.60
2022-08-09T18:24:14.265Z,0.60
2022-08-09T18:26:46.266Z,0.70
2022-08-09T18:30:42.771Z,1.23
2022-08-09T18:32:05.000Z,0.50
2022-08-09T18:34:35.057Z,0.57
2022-08-09T18:37:10.316Z,0.60
2022-08-09T18:39:55.678Z,1.02
2022-08-09T18:42:28.240Z,0.90
2022-08-09T18:45:01.170Z,0.90
2022-08-09T18:47:37.112Z,0.70
2022-08-09T18:50:05.926Z,0.70
2022-08-09T18:52:39.079Z,0.40
2022-08-09T18:55:13.850Z,0.60
2022-08-09T18:57:45.368Z,0.70
2022-08-09T19:00:20.339Z,1.10
2022-08-09T19:02:54.226Z,0.60
2022-08-09T19:05:41.520Z,0.70
2022-08-09T19:08:18.623Z,0.70
2022-08-09T19:10:50.699Z,0.50
2022-08-09T19:13:22.180Z,0.65
2022-08-09T19:15:56.306Z,0.55
2022-08-09T19:18:34.238Z,0.50
2022-08-09T19:21:09.384Z,0.50
2022-08-09T19:24:39.447Z,0.70
2022-08-09T19:26:32.654Z,0.70
2022-08-09T19:31:45.325Z,0.82
2022-08-09T19:34:22.281Z,0.80
2022-08-09T19:36:56.342Z,0.77
2022-08-09T19:39:29.141Z,0.80
2022-08-09T19:42:15.110Z,0.85
2022-08-09T19:44:50.861Z,0.90
2022-08-09T19:47:23.531Z,0.80
2022-08-09T19:50:07.565Z,0.95
2022-08-09T19:52:49.731Z,1.27
2022-08-09T19:55:19.851Z,1.33
2022-08-09T19:57:57.703Z,1.25
2022-08-09T20:00:24.364Z,1.75
2022-08-09T20:04:12.489Z,1.05
2022-08-09T20:05:46.585Z,1.38
2022-08-09T20:08:16.068Z,1.10
2022-08-09T20:10:52.213Z,0.90
2022-08-09T20:13:21.053Z,0.90
2022-08-09T20:16:33.263Z,1.30
2022-08-09T20:18:35.517Z,1.58
2022-08-09T20:21:08.634Z,1.80
2022-08-09T20:23:38.833Z,1.48
2022-08-09T20:26:13.320Z,1.48
2022-08-09T20:28:48.675Z,1.40
2022-08-09T20:31:17.825Z,1.40
2022-08-09T20:33:58.186Z,1.38
2022-08-09T20:36:28.487Z,1.35
2022-08-09T20:39:29.155Z,1.50
2022-08-09T20:41:43.010Z,1.73
2022-08-09T20:44:10.774Z,1.50
2022-08-09T20:46:44.070Z,1.58
2022-08-09T20:49:16.137Z,1.33
2022-08-09T20:51:50.385Z,1.25
2022-08-09T20:54:18.148Z,1.40
2022-08-09T20:56:53.614Z,1.00
2022-08-09T20:59:50.143Z,1.20
2022-08-09T21:02:17.531Z,1.25
2022-08-09T21:05:51.412Z,1.00
2022-08-09T21:07:40.188Z,1.48
2022-08-09T21:10:08.150Z,1.40
2022-08-09T21:12:37.716Z,1.40
2022-08-09T21:15:05.952Z,1.40
2022-08-09T21:18:22.257Z,1.27
2022-08-09T21:20:29.849Z,1.10
2022-08-09T21:22:58.259Z,1.13
2022-08-09T21:25:55.360Z,1.15
2022-08-09T21:28:34.208Z,1.10
2022-08-09T21:31:16.131Z,1.00
2022-08-09T21:33:52.137Z,1.17
2022-08-09T21:36:27.848Z,0.75
2022-08-09T21:38:58.066Z,0.80
2022-08-09T21:42:04.264Z,0.90
2022-08-09T21:44:33.139Z,0.80
2022-08-09T21:47:07.811Z,0.93
2022-08-09T21:49:39.160Z,0.80
2022-08-09T21:52:18.274Z,0.80
2022-08-09T21:55:02.778Z,0.90
2022-08-09T21:57:58.848Z,1.08
2022-08-09T22:00:32.589Z,1.00
2022-08-09T22:03:02.421Z,0.70
2022-08-09T22:08:03.531Z,0.90
2022-08-09T22:10:30.537Z,0.85
2022-08-09T22:12:58.028Z,0.80
2022-08-09T22:15:34.883Z,0.80
2022-08-09T22:18:02.631Z,0.93
2022-08-09T22:20:31.092Z,0.85
2022-08-09T22:22:58.691Z,0.90
2022-08-09T22:26:06.754Z,0.90
2022-08-09T22:28:12.513Z,0.70
2022-08-09T22:30:41.838Z,0.85
2022-08-09T22:33:17.224Z,0.77
2022-08-09T22:36:00.906Z,0.80
2022-08-09T22:38:30.617Z,0.70
2022-08-09T22:40:58.610Z,1.00
2022-08-09T22:44:01.846Z,0.70
2022-08-09T22:48:15.793Z,0.80
2022-08-09T22:49:09.874Z,0.80
2022-08-09T22:51:38.064Z,0.70
2022-08-09T22:54:08.031Z,1.00
2022-08-09T22:56:34.852Z,0.68
2022-08-09T22:59:05.873Z,0.70
2022-08-09T23:01:50.512Z,0.80
2022-08-09T23:04:17.469Z,0.88
2022-08-09T23:07:03.346Z,0.80
2022-08-09T23:09:41.605Z,0.80
2022-08-09T23:12:08.473Z,0.90
2022-08-09T23:14:42.575Z,0.93
2022-08-09T23:17:10.634Z,0.82
2022-08-09T23:20:06.029Z,0.80
2022-08-09T23:22:24.399Z,0.82
2022-08-09T23:24:51.097Z,1.00
2022-08-09T23:27:17.799Z,0.90
2022-08-09T23:29:44.482Z,0.98
2022-08-09T23:32:11.325Z,1.10
2022-08-09T23:34:38.150Z,0.73
2022-08-09T23:37:05.063Z,0.75
2022-08-09T23:39:32.110Z,1.00
2022-08-09T23:41:59.203Z,1.10
2022-08-09T23:44:25.955Z,0.75
2022-08-09T23:46:57.444Z,1.00
2022-08-09T23:49:25.433Z,0.88
2022-08-09T23:51:52.967Z,1.00
2022-08-09T23:54:20.278Z,0.90
2022-08-09T23:56:54.244Z,0.80
2022-08-09T23:59:23.412Z,0.90
